Latest Weather Observations for Hindmarsh Island

IDS60901

Issued at 12:01 am CDT Sunday 16 December 2018 (issued every 10 minutes, with the page automatically refreshed every 10 minutes)

About weather observations | Map of Adelaide area stations | Latest observations for Adelaide area | Other Formats
Station Details ID: 023894 Name: HINDMARSH ISLAND AWS Lat: -35.52 Lon: 138.82 Height: 11.0 m
Data from the previous 72 hours. | See also: Recent months at Hindmarsh Island
Date/Time
CDT
Temp
°C
App
Temp
°C
Dew
Point
°C
Rel
Hum
%
Delta-T
°C
Wind Press
QNH
hPa
Press
MSL
hPa
Rain since
9am
mm
Dir  Spd
km/h
Gust
km/h
Spd
kts
Gust
kts
16/12:00am 17.4 15.2 15.0 86 1.4 WSW 20 30 11 16 1004.7 1004.6 0.0
 
Date/Time
CDT
Temp
°C
App
Temp
°C
Dew
Point
°C
Rel
Hum
%
Delta-T
°C
Wind Press
QNH
hPa
Press
MSL
hPa
Rain since
9am
mm
Dir  Spd
km/h
Gust
km/h
Spd
kts
Gust
kts
15/11:30pm 17.5 15.0 15.1 86 1.4 WSW 22 32 12 17 1004.7 1004.6 0.0
15/11:00pm 17.5 14.9 15.0 85 1.5 WSW 22 28 12 15 1004.5 1004.4 0.0
15/10:30pm 17.5 14.6 15.0 85 1.5 SW 24 32 13 17 1004.5 1004.4 0.0
15/10:00pm 17.6 15.0 15.0 85 1.5 WSW 22 30 12 16 1003.9 1003.8 0.0
15/09:30pm 17.5 14.9 14.8 84 1.6 WSW 22 30 12 16 1003.8 1003.7 0.0
15/09:00pm 17.6 14.6 14.9 84 1.6 SW 24 32 13 17 1003.9 1003.8 0.0
15/08:30pm 17.5 14.4 14.6 83 1.7 SW 24 30 13 16 1004.2 1004.1 0.0
15/08:00pm 17.6 13.9 14.9 84 1.6 SSW 28 35 15 19 1004.2 1004.1 0.0
15/07:30pm 17.7 13.2 14.8 83 1.7 SSW 32 39 17 21 1004.0 1003.9 0.0
15/07:00pm 18.7 14.7 15.2 80 2.1 SSW 30 37 16 20 1003.7 1003.6 0.0
15/06:30pm 19.7 16.2 15.4 76 2.5 SW 28 33 15 18 1003.6 1003.5 0.0
15/06:00pm 19.9 16.7 15.3 75 2.7 SSW 26 30 14 16 1003.1 1003.0 0.0
15/05:30pm 20.0 16.5 15.6 76 2.6 SW 28 33 15 18 1002.9 1002.8 0.0
15/05:00pm 20.3 16.8 15.5 74 2.8 SSW 28 35 15 19 1003.0 1002.9 0.0
15/04:30pm 20.5 16.4 15.9 75 2.8 SSW 32 35 17 19 1003.0 1002.9 0.0
15/04:00pm 21.0 17.6 15.8 72 3.1 SW 28 33 15 18 1003.0 1002.9 0.0
15/03:30pm 21.6 18.5 15.7 69 3.5 SSW 26 32 14 17 1003.6 1003.5 0.0
15/03:00pm 21.3 18.1 16.3 73 3.0 SSW 28 33 15 18 1003.9 1003.8 0.0
15/02:30pm 21.3 18.6 16.5 74 2.9 SSW 26 30 14 16 1004.1 1004.0 0.0
15/02:00pm 21.9 19.3 16.8 73 3.1 SSW 26 32 14 17 1004.6 1004.5 0.0
15/01:30pm 21.5 18.9 15.8 70 3.4 SSW 24 28 13 15 1004.8 1004.7 0.0
15/01:00pm 22.5 21.2 17.2 72 3.3 SSW 20 24 11 13 1004.9 1004.8 0.0
15/12:30pm 21.6 19.0 15.9 70 3.4 S 24 28 13 15 1005.1 1005.0 0.0
15/12:00pm 21.8 20.1 16.3 71 3.3 S 20 24 11 13 1005.5 1005.4 0.0
15/11:30am 21.4 20.1 15.9 71 3.3 SSW 17 19 9 10 1005.3 1005.2 0.0
15/11:00am 21.3 20.6 16.3 73 3.0 SSW 15 19 8 10 1005.5 1005.4 0.0
15/10:30am 19.8 19.1 15.4 76 2.6 SW 13 15 7 8 1005.9 1005.8 0.0
15/10:00am 20.3 20.2 16.1 77 2.5 SW 11 13 6 7 1005.9 1005.8 0.0
15/09:30am 19.1 19.2 15.6 80 2.1 W 9 13 5 7 1006.1 1006.0 0.0
15/09:00am 18.9 18.2 15.4 80 2.1 W 13 19 7 10 1005.8 1005.7 1.6
15/08:30am 18.5 17.6 15.9 85 1.5 SW 15 17 8 9 1005.8 1005.7 1.6
15/08:00am 17.3 16.8 14.9 86 1.4 SW 11 13 6 7 1005.9 1005.8 1.6
15/07:30am 17.1 16.5 14.7 86 1.4 WSW 11 15 6 8 1005.2 1005.1 1.6
15/07:00am 17.0 16.0 14.6 86 1.4 WSW 13 17 7 9 1005.0 1004.9 1.6
15/06:30am 17.0 16.0 14.6 86 1.4 SW 13 17 7 9 1005.1 1005.0 1.6
15/06:00am 16.8 15.7 14.4 86 1.4 SW 13 15 7 8 1005.2 1005.1 1.6
15/05:30am 16.8 16.5 14.4 86 1.4 WSW 9 13 5 7 1004.8 1004.7 1.6
15/05:00am 16.8 16.5 14.4 86 1.4 SW 9 13 5 7 1004.5 1004.4 1.6
15/04:30am 16.8 15.4 14.4 86 1.4 SSW 15 17 8 9 1004.8 1004.7 1.6
15/04:00am 16.7 15.2 14.3 86 1.4 SW 15 17 8 9 1004.5 1004.4 1.6
15/03:30am 16.7 16.4 14.3 86 1.4 SSW 9 11 5 6 1004.7 1004.6 1.6
15/03:00am 16.6 15.9 14.2 86 1.4 SSW 11 13 6 7 1004.7 1004.6 1.6
15/02:30am 16.7 15.3 14.5 87 1.3 SSW 15 19 8 10 1005.3 1005.2 1.6
15/02:00am 16.8 15.7 14.4 86 1.4 SSW 13 17 7 9 1005.4 1005.3 1.6
15/01:30am 16.8 16.5 14.3 85 1.4 S 9 13 5 7 1005.9 1005.8 1.6
15/01:00am 16.7 15.2 14.2 85 1.4 S 15 19 8 10 1005.9 1005.8 1.6
15/12:30am 16.7 14.8 14.2 85 1.4 S 17 24 9 13 1006.1 1006.0 1.6
15/12:00am 16.6 13.8 14.2 86 1.4 S 22 28 12 15 1006.4 1006.3 1.6
 
Date/Time
CDT
Temp
°C
App
Temp
°C
Dew
Point
°C
Rel
Hum
%
Delta-T
°C
Wind Press
QNH
hPa
Press
MSL
hPa
Rain since
9am
mm
Dir  Spd
km/h
Gust
km/h
Spd
kts
Gust
kts
14/11:30pm 16.7 12.7 14.0 84 1.5 SSE 28 33 15 18 1006.3 1006.2 1.6
14/11:00pm 16.6 11.8 13.9 84 1.5 SSE 32 39 17 21 1006.5 1006.4 1.6
14/10:30pm 16.7 11.3 13.8 83 1.6 SSE 35 43 19 23 1006.8 1006.7 1.6
14/10:00pm 16.6 10.8 13.9 84 1.5 SSE 37 44 20 24 1006.5 1006.4 1.6
14/09:30pm 16.7 9.8 14.0 84 1.5 SSE 43 50 23 27 1006.4 1006.3 1.6
14/09:00pm 16.9 10.5 14.2 84 1.5 SSE 41 50 22 27 1006.2 1006.1 1.6
14/08:30pm 17.1 11.9 14.4 84 1.6 SSE 35 43 19 23 1006.2 1006.1 1.6
14/08:00pm 17.1 11.5 14.4 84 1.5 SSE 37 43 20 23 1005.8 1005.7 1.6
14/07:30pm 17.2 11.2 14.5 84 1.6 SSE 39 52 21 28 1005.6 1005.5 1.6
14/07:00pm 17.1 9.4 14.4 84 1.5 SSE 48 57 26 31 1005.2 1005.1 1.6
14/06:30pm 17.2 8.4 14.5 84 1.6 S 54 61 29 33 1004.6 1004.5 1.6
14/06:00pm 17.0 7.7 14.6 86 1.4 SSE 57 69 31 37 1004.4 1004.3 1.6
14/05:30pm 16.7 7.5 14.5 87 1.3 SSE 56 69 30 37 1003.9 1003.8 1.6
14/05:00pm 16.7 7.9 14.5 87 1.3 SSE 54 65 29 35 1004.0 1003.9 1.4
14/04:30pm 16.7 7.5 14.5 87 1.3 SSE 56 70 30 38 1004.2 1004.1 1.2
14/04:00pm 16.9 8.1 14.5 86 1.4 SSE 54 65 29 35 1004.1 1004.0 1.2
14/03:30pm 17.6 8.5 14.7 83 1.7 SSE 56 65 30 35 1004.3 1004.2 1.2
14/03:00pm 17.6 8.4 14.9 84 1.6 S 57 69 31 37 1003.9 1003.8 1.2
14/02:30pm 17.7 8.7 15.1 85 1.5 SSE 56 69 30 37 1004.4 1004.3 1.2
14/02:00pm 17.9 10.2 15.5 86 1.4 SSE 50 59 27 32 1004.3 1004.2 1.2
14/01:30pm 17.7 10.7 15.3 86 1.4 SSE 46 57 25 31 1004.5 1004.4 1.2
14/01:00pm 17.3 9.2 15.3 88 1.2 SSE 52 63 28 34 1004.7 1004.6 1.2
14/12:30pm 17.2 9.5 15.5 90 1.0 SSE 50 59 27 32 1004.2 1004.1 1.2
14/12:00pm 16.6 9.8 15.8 95 0.5 SSE 46 57 25 31 1004.4 1004.3 1.2
14/11:50am 16.8 13.6 16.2 96 0.4 S 28 46 15 25 1004.7 1004.6 1.2
14/11:30am 16.4 14.4 15.6 95 0.5 SSE 20 26 11 14 1005.1 1005.0 1.2
14/11:00am 16.0 12.8 15.2 95 0.5 SE 26 30 14 16 1005.2 1005.1 1.2
14/10:30am 15.8 12.1 15.0 95 0.5 SE 28 33 15 18 1005.3 1005.2 1.2
14/10:00am 16.1 13.3 15.3 95 0.5 SE 24 28 13 15 1005.2 1005.1 1.0
14/09:30am 15.6 8.9 14.6 94 0.6 SE 43 67 23 36 1004.7 1004.6 0.2
14/09:25am 15.7 6.9 14.4 92 0.7 SSE 54 67 29 36 1004.4 1004.3 0.0
14/09:00am 16.5 7.6 15.7 95 0.5 S 57 70 31 38 1003.4 1003.3 7.4
14/08:45am 16.3 6.9 15.5 95 0.5 S 59 78 32 42 1003.0 1002.9 7.4
14/08:30am 16.5 6.3 15.5 94 0.6 SSE 63 76 34 41 1002.9 1002.8 7.4
14/08:00am 16.3 7.5 15.5 95 0.5 S 56 67 30 36 1002.6 1002.5 7.4
14/07:51am 16.2 7.3 15.4 95 0.5 S 56 74 30 40 1002.9 1002.8 7.2
14/07:30am 15.9 6.4 15.1 95 0.5 S 59 72 32 39 1002.5 1002.4 7.2
14/07:18am 15.8 6.2 15.0 95 0.5 S 59 78 32 42 1002.5 1002.4 7.0
14/07:00am 15.7 5.3 14.9 95 0.5 S 63 76 34 41 1002.3 1002.2 7.0
14/06:30am 15.4 4.8 14.4 94 0.6 S 63 82 34 44 1001.8 1001.7 7.0
14/06:03am 15.7 4.9 14.7 94 0.6 S 65 83 35 45 1002.2 1002.1 6.6
14/06:00am 15.5 4.0 14.0 91 0.9 SSW 67 83 36 45 1001.9 1001.8 6.6
14/05:30am 15.4 4.2 13.6 89 1.0 SSW 65 82 35 44 1001.9 1001.8 6.2
14/05:01am 15.2 4.9 14.1 93 0.6 SSW 61 80 33 43 1002.0 1001.9 5.8
14/05:00am 15.3 5.1 14.3 94 0.6 SSW 61 76 33 41 1002.1 1002.0 5.8
14/04:31am 14.8 4.1 12.7 87 1.2 SSW 61 80 33 43 1002.1 1002.0 4.0
14/04:30am 14.9 4.6 12.8 87 1.2 SSW 59 74 32 40 1002.4 1002.3 4.0
14/04:05am 14.5 4.1 12.5 88 1.1 SSW 59 78 32 42 1002.3 1002.2 3.6
14/04:00am 14.7 4.0 12.9 89 1.0 SSW 61 76 33 41 1002.6 1002.5 3.6
14/03:37am 14.6 3.8 12.6 88 1.1 SSW 61 80 33 43 1003.0 1002.9 3.2
14/03:30am 14.4 2.8 12.4 88 1.1 SSW 65 78 35 42 1003.1 1003.0 3.0
14/03:01am 14.1 2.8 12.1 88 1.1 SSW 63 83 34 45 1003.2 1003.1 2.8
14/03:00am 14.1 2.8 12.1 88 1.1 SSW 63 80 34 43 1003.3 1003.2 2.8
14/02:30am 14.0 2.7 12.0 88 1.1 SSW 63 82 34 44 1004.2 1004.1 2.6
14/02:07am 13.6 2.5 11.5 87 1.1 SSW 61 80 33 43 1004.6 1004.5 2.4
14/02:00am 13.6 1.7 11.3 86 1.2 SSW 65 82 35 44 1004.8 1004.7 2.4
14/01:30am 13.6 1.7 11.3 86 1.2 SSW 65 83 35 45 1005.1 1005.0 1.8
14/01:02am 13.6 2.0 11.1 85 1.3 SSW 63 82 34 44 1005.7 1005.6 1.6
14/01:00am 13.8 1.9 11.3 85 1.3 SSW 65 82 35 44 1005.9 1005.8 1.6
14/12:30am 13.3 1.1 10.3 82 1.6 SSW 65 85 35 46 1005.4 1005.3 1.4
14/12:21am 13.7 2.4 10.9 83 1.5 SSW 61 80 33 43 1006.1 1006.0 1.4
14/12:00am 13.9 1.6 11.2 84 1.4 SSW 67 82 36 44 1006.3 1006.2 1.2
 
Date/Time
CDT
Temp
°C
App
Temp
°C
Dew
Point
°C
Rel
Hum
%
Delta-T
°C
Wind Press
QNH
hPa
Press
MSL
hPa
Rain since
9am
mm
Dir  Spd
km/h
Gust
km/h
Spd
kts
Gust
kts
13/11:32pm 14.1 2.6 10.3 78 2.0 SW 61 80 33 43 1006.7 1006.6 1.2
13/11:30pm 14.2 2.4 10.6 79 1.9 SW 63 80 34 43 1006.9 1006.8 1.2
13/11:00pm 14.4 3.0 9.2 71 2.7 SSW 59 76 32 41 1007.1 1007.0 1.2
13/10:30pm 14.3 2.1 9.1 71 2.7 SW 63 83 34 45 1007.8 1007.7 1.2
13/10:06pm 14.1 2.0 9.5 74 2.4 SSW 63 82 34 44 1008.2 1008.1 1.2
13/10:00pm 14.5 2.8 9.3 71 2.7 SSW 61 78 33 42 1008.1 1008.0 1.2
13/09:45pm 14.4 2.3 9.4 72 2.6 SSW 63 82 34 44 1008.4 1008.3 1.2
13/09:30pm 14.5 2.5 9.7 73 2.5 SSW 63 80 34 43 1008.2 1008.1 1.2
13/09:13pm 14.4 2.4 9.8 74 2.4 SSW 63 82 34 44 1008.7 1008.6 1.2
13/09:00pm 14.0 1.9 9.4 74 2.4 SSW 63 78 34 42 1008.2 1008.1 1.2
13/08:37pm 13.9 2.4 10.1 78 2.0 SSW 61 80 33 43 1008.3 1008.2 1.2
13/08:30pm 13.2 1.0 10.2 82 1.6 SSW 65 78 35 42 1008.4 1008.3 1.2
13/08:05pm 13.0 2.5 10.2 83 1.4 SSW 56 74 30 40 1008.9 1008.8 1.0
13/08:00pm 13.6 3.0 9.8 78 2.0 SSW 56 72 30 39 1008.7 1008.6 0.4
13/07:30pm 13.2 1.4 7.4 68 2.8 SSW 59 82 32 44 1008.4 1008.3 0.2
13/07:25pm 13.6 1.5 9.5 76 2.1 SSW 63 82 34 44 1008.7 1008.6 0.2
13/07:00pm 14.8 2.2 8.7 67 3.1 SSW 65 80 35 43 1008.2 1008.1 0.2
13/06:40pm 15.4 3.7 7.9 61 3.8 SSW 59 78 32 42 1007.9 1007.8 0.2
13/06:30pm 15.2 3.3 8.7 65 3.3 SSW 61 72 33 39 1007.9 1007.8 0.2
13/06:03pm 15.1 3.6 6.9 58 4.0 SSW 57 76 31 41 1007.6 1007.5 0.2
13/06:00pm 15.8 4.6 8.3 61 3.8 SSW 57 70 31 38 1008.0 1007.9 0.2
13/05:44pm 15.7 4.2 7.2 57 4.2 SSW 57 76 31 41 1007.8 1007.7 0.2
13/05:30pm 15.8 4.3 7.3 57 4.2 SSW 57 74 31 40 1007.6 1007.5 0.2
13/05:26pm 16.4 5.3 8.1 58 4.2 SSW 56 74 30 40 1007.8 1007.7 0.2
13/05:00pm 16.8 5.6 7.4 54 4.7 SSW 56 69 30 37 1008.1 1008.0 0.2
13/04:30pm 15.9 3.9 6.6 54 4.6 SSW 59 72 32 39 1007.9 1007.8 0.2
13/04:00pm 15.5 4.2 7.8 60 3.8 SSW 57 70 31 38 1007.8 1007.7 0.2
13/03:36pm 17.4 6.0 6.6 49 5.3 SSW 56 74 30 40 1007.8 1007.7 0.2
13/03:30pm 16.9 5.4 7.3 53 4.8 SSW 57 69 31 37 1007.8 1007.7 0.2
13/03:00pm 16.1 4.4 6.3 52 4.8 SSW 57 72 31 39 1007.6 1007.5 0.2
13/02:30pm 16.4 4.8 8.4 59 4.1 SSW 59 78 32 42 1007.8 1007.7 0.2
13/02:00pm 15.9 3.6 7.1 56 4.3 SSW 61 74 33 40 1007.5 1007.4 0.2
13/01:30pm 16.7 4.9 8.9 60 4.0 SSW 61 78 33 42 1007.6 1007.5 0.2
13/01:00pm 16.7 4.7 8.4 58 4.2 SSW 61 76 33 41 1007.4 1007.3 0.2
13/12:30pm 15.8 4.5 8.1 60 3.9 SSW 57 72 31 39 1007.1 1007.0 0.2
13/12:00pm 15.5 3.6 8.5 63 3.6 SSW 61 76 33 41 1006.7 1006.6 0.2
13/11:37am 16.2 4.7 7.2 55 4.5 SSW 57 76 31 41 1006.9 1006.8 0.2
13/11:30am 15.6 3.5 7.6 59 4.0 SSW 61 76 33 41 1006.6 1006.5 0.2
13/11:00am 15.1 4.0 8.8 66 3.2 SSW 57 74 31 40 1006.4 1006.3 0.2
13/10:30am 14.8 3.8 10.4 75 2.3 SSW 59 72 32 39 1006.1 1006.0 0.2
13/10:00am 15.5 4.8 9.6 68 3.1 SSW 56 70 30 38 1006.4 1006.3 0.0
13/09:30am 15.8 5.4 9.2 65 3.4 SSW 54 67 29 36 1006.5 1006.4 0.0
13/09:00am 16.2 6.0 8.7 61 3.8 SSW 52 61 28 33 1006.1 1006.0 4.0
13/08:30am 16.2 6.4 10.1 67 3.2 SSW 52 65 28 35 1006.3 1006.2 4.0
13/08:00am 15.6 4.8 7.6 59 4.0 SW 54 67 29 36 1006.2 1006.1 4.0
13/07:30am 15.5 4.8 8.0 61 3.8 SW 54 72 29 39 1006.1 1006.0 4.0
13/07:26am 15.2 4.4 7.5 60 3.8 SW 54 72 29 39 1006.0 1005.9 4.0
13/07:00am 15.2 3.8 9.1 67 3.1 SW 59 76 32 41 1005.4 1005.3 4.0
13/06:30am 14.7 3.0 9.5 71 2.7 SW 61 76 33 41 1005.1 1005.0 4.0
13/06:02am 14.8 4.2 11.8 82 1.6 SSW 59 78 32 42 1005.0 1004.9 4.0
13/06:00am 14.6 3.4 11.2 80 1.8 SW 61 78 33 42 1004.9 1004.8 4.0
13/05:30am 14.5 4.0 11.1 80 1.8 SW 57 76 31 41 1004.1 1004.0 3.8
13/05:00am 14.6 4.0 12.1 85 1.4 SSW 59 78 32 42 1003.8 1003.7 3.8
13/04:45am 14.6 4.0 11.9 84 1.5 SSW 59 78 32 42 1003.6 1003.5 3.8
13/04:30am 15.2 5.3 12.9 86 1.3 SSW 57 74 31 40 1004.0 1003.9 3.8
13/04:00am 15.2 6.2 12.9 86 1.3 SSW 52 65 28 35 1003.5 1003.4 3.4
13/03:30am 15.7 7.1 12.8 83 1.6 SW 50 61 27 33 1003.6 1003.5 2.2
13/03:00am 16.2 8.7 14.0 87 1.3 SW 46 59 25 32 1003.6 1003.5 2.2
13/02:30am 16.3 8.1 14.0 86 1.3 SW 50 65 27 35 1003.4 1003.3 2.2
13/02:14am 16.9 11.2 14.2 84 1.5 SW 37 59 20 32 1003.4 1003.3 2.2
13/02:00am 17.0 12.4 14.5 85 1.4 SW 32 41 17 22 1003.8 1003.7 2.2
13/01:30am 17.3 14.9 14.4 83 1.7 SSW 20 26 11 14 1004.1 1004.0 2.2
13/01:00am 17.2 13.6 14.1 82 1.8 SSW 26 32 14 17 1004.2 1004.1 2.2
13/12:30am 17.2 13.3 14.3 83 1.7 SSW 28 33 15 18 1004.1 1004.0 2.2

Latest Capital City Observations: Canberra | Sydney | Melbourne | Brisbane | Adelaide | Perth | Hobart | Darwin

Other Formats:

Comma delimited format used in spreadsheet applications
http://www.bom.gov.au/fwo/IDS60901/IDS60901.94677.axf

JavaScript Object Notation format (JSON) in row-major order
http://www.bom.gov.au/fwo/IDS60901/IDS60901.94677.json